createdAt,value
2022-10-11T00:00:13.163Z,6.97
2022-10-11T00:02:54.997Z,7.38
2022-10-11T00:05:37.196Z,6.60
2022-10-11T00:08:17.649Z,6.18
2022-10-11T00:11:01.635Z,6.82
2022-10-11T00:13:42.008Z,6.22
2022-10-11T00:16:23.621Z,5.85
2022-10-11T00:19:05.825Z,5.93
2022-10-11T00:21:46.808Z,6.30
2022-10-11T00:24:27.653Z,6.45
2022-10-11T00:27:09.096Z,6.00
2022-10-11T00:29:50.438Z,6.20
2022-10-11T00:32:33.732Z,5.65
2022-10-11T00:35:14.899Z,6.15
2022-10-11T00:37:58.295Z,6.68
2022-10-11T00:40:40.830Z,6.32
2022-10-11T00:43:26.128Z,5.97
2022-10-11T00:46:31.788Z,6.32
2022-10-11T00:49:28.057Z,5.88
2022-10-11T00:52:18.445Z,6.28
2022-10-11T00:55:04.863Z,5.53
2022-10-11T00:57:50.000Z,5.43
2022-10-11T01:00:34.325Z,5.30
2022-10-11T01:03:19.470Z,4.93
2022-10-11T01:06:01.698Z,6.13
2022-10-11T01:08:49.476Z,5.25
2022-10-11T01:11:35.228Z,6.80
2022-10-11T01:14:58.956Z,6.32
2022-10-11T01:17:54.642Z,5.05
2022-10-11T01:21:02.357Z,5.10
2022-10-11T01:24:38.610Z,5.80
2022-10-11T01:27:53.206Z,5.90
2022-10-11T01:30:37.830Z,6.13
2022-10-11T01:33:38.580Z,6.10
2022-10-11T01:36:31.563Z,6.68
2022-10-11T01:39:23.249Z,7.03
2022-10-11T01:42:10.887Z,5.80
2022-10-11T01:44:55.159Z,5.40
2022-10-11T01:47:36.217Z,6.28
2022-10-11T01:50:44.370Z,6.43
2022-10-11T01:53:51.509Z,6.32
2022-10-11T01:57:14.513Z,6.43
2022-10-11T02:00:05.411Z,7.03
2022-10-11T02:03:18.898Z,5.78
2022-10-11T02:06:09.576Z,5.40
2022-10-11T02:09:00.192Z,6.72
2022-10-11T02:11:44.981Z,5.93
2022-10-11T02:14:28.985Z,6.70
2022-10-11T02:17:15.422Z,5.43
2022-10-11T02:19:59.585Z,5.53
2022-10-11T02:22:45.380Z,6.43
2022-10-11T02:25:31.831Z,6.75
2022-10-11T02:28:21.766Z,6.85
2022-10-11T02:31:05.920Z,6.05
2022-10-11T02:33:57.836Z,5.05
2022-10-11T02:36:49.039Z,5.10
2022-10-11T02:39:38.432Z,5.55
2022-10-11T02:42:26.352Z,6.50
2022-10-11T02:45:17.048Z,5.90
2022-10-11T02:47:58.918Z,5.82
2022-10-11T02:50:42.759Z,5.85
2022-10-11T02:53:25.397Z,6.90
2022-10-11T02:56:19.386Z,6.22
2022-10-11T02:59:00.004Z,6.63
2022-10-11T03:01:41.546Z,5.82
2022-10-11T03:04:22.882Z,4.82
2022-10-11T03:07:04.565Z,5.95
2022-10-11T03:09:45.938Z,6.20
2022-10-11T03:12:27.199Z,5.50
2022-10-11T03:15:10.248Z,5.05
2022-10-11T03:17:52.526Z,5.40
2022-10-11T03:20:33.497Z,5.28
2022-10-11T03:23:24.003Z,6.80
2022-10-11T03:26:09.185Z,5.03
2022-10-11T03:28:49.962Z,6.38
2022-10-11T03:31:31.387Z,6.57
2022-10-11T03:34:12.802Z,6.47
2022-10-11T03:36:54.277Z,5.65
2022-10-11T03:39:35.872Z,5.97
2022-10-11T03:42:17.053Z,5.13
2022-10-11T03:44:59.750Z,6.03
2022-10-11T03:47:42.202Z,5.10
2022-10-11T03:50:22.937Z,5.05
2022-10-11T03:53:05.547Z,4.85
2022-10-11T03:55:47.489Z,4.95
2022-10-11T03:58:28.675Z,4.70
2022-10-11T04:01:10.769Z,5.13
2022-10-11T04:03:56.276Z,5.30
2022-10-11T04:06:39.724Z,6.95
2022-10-11T04:09:21.554Z,5.85
2022-10-11T04:12:04.812Z,5.22
2022-10-11T04:14:46.914Z,5.65
2022-10-11T04:17:28.506Z,5.20
2022-10-11T04:20:11.700Z,5.55
2022-10-11T04:22:52.556Z,5.60
2022-10-11T04:25:34.074Z,5.70
2022-10-11T04:28:15.881Z,5.55
2022-10-11T04:30:56.801Z,6.07
2022-10-11T04:33:38.360Z,5.25
2022-10-11T04:36:19.729Z,5.72
2022-10-11T04:39:01.681Z,5.43
2022-10-11T04:41:42.610Z,6.13
2022-10-11T04:44:23.974Z,4.75
2022-10-11T04:47:05.583Z,5.53
2022-10-11T04:49:46.885Z,5.82
2022-10-11T04:52:28.223Z,5.22
2022-10-11T04:55:11.044Z,5.53
2022-10-11T04:57:52.482Z,5.38
2022-10-11T05:00:46.556Z,5.40
2022-10-11T05:03:29.235Z,4.80
2022-10-11T05:06:10.314Z,5.40
2022-10-11T05:08:51.382Z,5.30
2022-10-11T05:11:33.110Z,4.80
2022-10-11T05:14:14.218Z,5.20
2022-10-11T05:16:55.633Z,4.68
2022-10-11T05:19:36.999Z,4.97
2022-10-11T05:22:18.408Z,5.18
2022-10-11T05:24:59.801Z,5.75
2022-10-11T05:27:41.317Z,5.53
2022-10-11T05:30:22.649Z,5.85
2022-10-11T05:33:04.025Z,7.10
2022-10-11T05:35:45.686Z,5.57
2022-10-11T05:38:28.097Z,6.15
2022-10-11T05:41:11.610Z,5.82
2022-10-11T05:43:52.920Z,5.80
2022-10-11T05:46:34.324Z,6.95
2022-10-11T05:49:16.687Z,6.75
2022-10-11T05:51:58.785Z,6.13
2022-10-11T05:54:40.121Z,7.15
2022-10-11T05:57:21.501Z,6.32
2022-10-11T06:00:03.257Z,6.30
2022-10-11T06:02:54.002Z,6.82
2022-10-11T06:05:36.601Z,6.53
2022-10-11T06:08:18.321Z,6.25
2022-10-11T06:11:15.200Z,6.60
2022-10-11T06:14:07.176Z,8.05
2022-10-11T06:17:07.780Z,8.43
2022-10-11T06:20:03.833Z,7.50
2022-10-11T06:23:05.209Z,7.20
2022-10-11T06:26:12.889Z,6.47
2022-10-11T06:29:13.525Z,6.32
2022-10-11T06:32:13.186Z,6.93
2022-10-11T06:35:20.940Z,7.68
2022-10-11T06:38:15.994Z,8.35
2022-10-11T06:41:15.131Z,8.35
2022-10-11T06:44:16.678Z,7.75
2022-10-11T06:47:11.276Z,8.77
2022-10-11T06:50:40.710Z,8.52
2022-10-11T06:53:49.157Z,8.40
2022-10-11T06:56:44.692Z,8.95
2022-10-11T06:59:39.228Z,8.95
2022-10-11T07:02:38.215Z,8.00
2022-10-11T07:05:36.754Z,10.05
2022-10-11T07:08:35.775Z,8.50
2022-10-11T07:11:28.648Z,9.05
2022-10-11T07:14:35.155Z,8.95
2022-10-11T07:17:32.948Z,7.80
2022-10-11T07:20:27.572Z,8.40
2022-10-11T07:23:25.846Z,8.75
2022-10-11T07:26:23.731Z,8.77
2022-10-11T07:29:21.730Z,6.75
2022-10-11T07:32:17.315Z,6.72
2022-10-11T07:35:28.061Z,5.80
2022-10-11T07:38:27.211Z,6.25
2022-10-11T07:41:22.585Z,6.80
2022-10-11T07:44:30.373Z,6.53
2022-10-11T07:47:28.802Z,5.78
2022-10-11T07:50:28.327Z,7.40
2022-10-11T07:53:23.092Z,6.55
2022-10-11T07:56:30.605Z,7.15
2022-10-11T07:59:31.490Z,6.97
2022-10-11T08:02:26.673Z,7.35
2022-10-11T08:05:28.293Z,6.30
2022-10-11T08:08:25.694Z,6.28
2022-10-11T08:11:26.906Z,6.57
2022-10-11T08:14:26.291Z,7.30
2022-10-11T08:17:25.137Z,7.72
2022-10-11T08:20:24.114Z,6.15
2022-10-11T08:23:25.340Z,6.25
2022-10-11T08:26:26.102Z,6.03
2022-10-11T08:29:35.844Z,6.88
2022-10-11T08:32:31.217Z,7.05
2022-10-11T08:35:30.515Z,7.13
2022-10-11T08:38:31.519Z,6.80
2022-10-11T08:41:42.765Z,7.07
2022-10-11T08:47:46.464Z,8.00
2022-10-11T08:50:21.737Z,7.68
2022-10-11T08:52:56.825Z,7.97
2022-10-11T08:55:38.330Z,9.00
2022-10-11T08:58:10.414Z,8.60
2022-10-11T09:00:43.346Z,8.20
2022-10-11T09:06:32.271Z,7.90
2022-10-11T09:09:23.197Z,7.20
2022-10-11T09:12:12.209Z,7.57
2022-10-11T09:15:22.231Z,9.52
2022-10-11T09:18:18.573Z,7.90
2022-10-11T09:21:08.790Z,7.18
2022-10-11T09:24:22.788Z,7.50
2022-10-11T09:26:57.614Z,8.90
2022-10-11T09:29:49.942Z,8.05
2022-10-11T09:32:21.903Z,8.23
2022-10-11T09:35:02.021Z,8.57
2022-10-11T09:37:39.030Z,9.07
2022-10-11T09:40:37.622Z,8.95
2022-10-11T09:43:07.005Z,8.30
2022-10-11T09:45:36.530Z,7.75
2022-10-11T09:48:08.594Z,7.22
2022-10-11T09:50:41.402Z,6.77
2022-10-11T09:53:11.041Z,7.80
2022-10-11T09:55:50.251Z,7.57
2022-10-11T09:58:31.523Z,8.60
2022-10-11T10:01:08.528Z,7.25
2022-10-11T10:03:42.127Z,7.10
2022-10-11T10:06:20.707Z,7.22
2022-10-11T10:08:50.640Z,7.68
2022-10-11T10:11:21.038Z,7.45
2022-10-11T10:13:55.952Z,8.07
2022-10-11T10:16:30.569Z,7.90
2022-10-11T10:19:03.737Z,8.43
2022-10-11T10:21:39.010Z,7.22
2022-10-11T10:24:19.952Z,7.65
2022-10-11T10:27:20.880Z,8.13
2022-10-11T10:30:18.206Z,7.18
2022-10-11T10:32:56.891Z,6.18
2022-10-11T10:35:36.192Z,6.60
2022-10-11T10:38:21.721Z,7.15
2022-10-11T10:40:58.107Z,6.10
2022-10-11T10:43:34.525Z,6.53
2022-10-11T10:46:25.300Z,6.45
2022-10-11T10:52:13.755Z,6.78
2022-10-11T10:54:55.372Z,7.65
2022-10-11T10:57:34.669Z,5.78
2022-10-11T11:00:15.675Z,5.93
2022-10-11T11:03:07.105Z,6.70
2022-10-11T11:05:49.671Z,6.15
2022-10-11T11:08:42.085Z,5.77
2022-10-11T11:11:35.906Z,6.07
2022-10-11T11:14:24.521Z,4.65
2022-10-11T11:17:07.096Z,6.07
2022-10-11T11:19:58.677Z,6.63
2022-10-11T11:22:42.231Z,6.05
2022-10-11T11:25:30.971Z,5.32
2022-10-11T11:28:24.242Z,6.00
2022-10-11T11:31:06.864Z,4.82
2022-10-11T11:33:52.864Z,5.15
2022-10-11T11:36:36.596Z,5.38
2022-10-11T11:39:14.724Z,4.00
2022-10-11T11:41:52.528Z,5.53
2022-10-11T11:44:30.725Z,4.53
2022-10-11T11:47:05.823Z,4.68
2022-10-11T11:49:39.898Z,4.35
2022-10-11T11:52:27.983Z,4.80
2022-10-11T11:55:10.568Z,4.78
2022-10-11T11:58:06.062Z,5.15
2022-10-11T12:00:50.244Z,5.50
2022-10-11T12:03:26.640Z,4.20
2022-10-11T12:06:24.342Z,5.82
2022-10-11T12:09:09.620Z,4.60
2022-10-11T12:11:52.856Z,4.05
2022-10-11T12:14:37.353Z,5.07
2022-10-11T12:17:20.437Z,4.55
2022-10-11T12:20:17.720Z,4.60
2022-10-11T12:23:00.224Z,4.53
2022-10-11T12:25:43.895Z,4.93
2022-10-11T12:29:28.693Z,4.85
2022-10-11T12:32:53.342Z,4.35
2022-10-11T12:36:07.545Z,4.93
2022-10-11T12:38:41.924Z,5.25
2022-10-11T12:41:51.136Z,4.03
2022-10-11T12:44:27.098Z,5.13
2022-10-11T12:47:36.539Z,4.85
2022-10-11T12:50:20.381Z,3.75
2022-10-11T12:53:02.163Z,4.10
2022-10-11T12:55:51.616Z,4.50
2022-10-11T12:58:41.496Z,4.75
2022-10-11T13:01:19.739Z,4.32
2022-10-11T13:04:04.715Z,4.38
2022-10-11T13:06:39.649Z,4.80
2022-10-11T13:09:24.580Z,4.90
2022-10-11T13:12:00.977Z,4.70
2022-10-11T13:14:37.506Z,4.18
2022-10-11T13:17:17.669Z,4.55
2022-10-11T13:19:48.041Z,4.15
2022-10-11T13:22:24.084Z,4.93
2022-10-11T13:24:57.792Z,4.90
2022-10-11T13:27:28.979Z,5.85
2022-10-11T13:30:03.259Z,6.30
2022-10-11T13:32:35.106Z,6.53
2022-10-11T13:35:19.810Z,6.10
2022-10-11T13:37:53.565Z,6.05
2022-10-11T13:40:24.657Z,6.57
2022-10-11T13:42:55.345Z,6.30
2022-10-11T13:45:30.498Z,6.00
2022-10-11T13:47:59.982Z,6.80
2022-10-11T13:50:33.760Z,5.55
2022-10-11T13:53:24.491Z,5.93
2022-10-11T13:55:58.889Z,7.65
2022-10-11T13:58:35.179Z,6.85
2022-10-11T14:01:18.591Z,6.90
2022-10-11T14:03:55.188Z,6.15
2022-10-11T14:06:25.492Z,6.93
2022-10-11T14:08:59.165Z,6.18
2022-10-11T14:11:39.852Z,6.25
2022-10-11T14:14:48.773Z,7.15
2022-10-11T14:17:24.600Z,5.63
2022-10-11T14:20:18.322Z,6.32
2022-10-11T14:22:48.447Z,5.45
2022-10-11T14:25:20.054Z,5.80
2022-10-11T14:27:50.530Z,6.53
2022-10-11T14:30:26.132Z,5.38
2022-10-11T14:32:59.217Z,6.10
2022-10-11T14:35:33.412Z,5.28
2022-10-11T14:38:02.905Z,5.40
2022-10-11T14:40:34.022Z,7.30
2022-10-11T14:43:03.417Z,4.85
2022-10-11T14:45:32.814Z,5.60
2022-10-11T14:48:02.488Z,6.20
2022-10-11T14:50:40.385Z,4.60
2022-10-11T14:53:12.957Z,5.80
2022-10-11T14:58:19.253Z,5.82
2022-10-11T15:00:48.804Z,7.10
2022-10-11T15:03:18.189Z,7.05
2022-10-11T15:05:47.573Z,7.95
2022-10-11T15:08:17.434Z,12.10
2022-10-11T15:10:48.150Z,6.45
2022-10-11T15:13:17.536Z,10.40
2022-10-11T15:15:47.016Z,5.82
2022-10-11T15:18:21.127Z,8.38
2022-10-11T15:20:51.737Z,5.80
2022-10-11T15:23:21.117Z,10.00
2022-10-11T15:25:51.933Z,7.63
2022-10-11T15:28:28.262Z,6.82
2022-10-11T15:30:59.044Z,6.97
2022-10-11T15:33:28.576Z,6.93
2022-10-11T15:35:57.975Z,5.72
2022-10-11T15:38:27.853Z,5.97
2022-10-11T15:40:59.394Z,6.50
2022-10-11T15:43:28.867Z,5.72
2022-10-11T15:45:59.695Z,5.07
2022-10-11T15:48:29.292Z,5.78
2022-10-11T15:50:58.659Z,7.03
2022-10-11T15:53:31.342Z,6.05
2022-10-11T15:58:37.276Z,5.15
2022-10-11T16:01:10.146Z,5.13
2022-10-11T16:03:39.560Z,5.65
2022-10-11T16:06:09.764Z,6.57
2022-10-11T16:08:39.559Z,5.72
2022-10-11T16:11:12.575Z,6.07
2022-10-11T16:13:42.012Z,8.50
2022-10-11T16:16:12.897Z,9.82
2022-10-11T16:18:42.323Z,9.73
2022-10-11T16:21:15.508Z,9.02
2022-10-11T16:23:45.097Z,8.35
2022-10-11T16:26:17.012Z,6.57
2022-10-11T16:28:47.593Z,5.57
2022-10-11T16:31:20.967Z,6.35
2022-10-11T16:33:52.745Z,6.10
2022-10-11T16:36:40.421Z,7.50
2022-10-11T16:39:14.136Z,5.75
2022-10-11T16:41:45.889Z,6.07
2022-10-11T16:44:18.960Z,6.22
2022-10-11T16:46:49.902Z,6.57
2022-10-11T16:49:22.941Z,7.22
2022-10-11T16:51:54.386Z,6.78
2022-10-11T16:54:24.206Z,7.45
2022-10-11T16:56:55.506Z,7.68
2022-10-11T16:59:24.887Z,7.55
2022-10-11T17:01:54.323Z,7.82
2022-10-11T17:04:23.828Z,9.93
2022-10-11T17:06:54.964Z,9.57
2022-10-11T17:09:24.553Z,9.98
2022-10-11T17:11:55.240Z,10.02
2022-10-11T17:14:24.673Z,10.60
2022-10-11T17:16:54.053Z,9.95
2022-10-11T17:19:23.515Z,11.10
2022-10-11T17:21:53.228Z,10.88
2022-10-11T17:24:22.610Z,11.18
2022-10-11T17:26:51.967Z,10.65
2022-10-11T17:29:24.050Z,10.23
2022-10-11T17:31:54.041Z,11.17
2022-10-11T17:34:25.124Z,11.75
2022-10-11T17:36:54.791Z,9.20
2022-10-11T17:39:25.826Z,10.77
2022-10-11T17:41:55.281Z,10.95
2022-10-11T17:44:26.076Z,11.68
2022-10-11T17:46:55.455Z,10.55
2022-10-11T17:49:24.799Z,9.05
2022-10-11T17:51:54.569Z,9.98
2022-10-11T17:54:24.065Z,12.27
2022-10-11T17:56:54.474Z,11.32
2022-10-11T17:59:27.460Z,11.88
2022-10-11T18:01:57.293Z,10.75
2022-10-11T18:04:29.601Z,12.07
2022-10-11T18:06:59.125Z,12.88
2022-10-11T18:09:29.202Z,13.55
2022-10-11T18:11:58.643Z,16.77
2022-10-11T18:14:29.432Z,17.40
2022-10-11T18:17:00.321Z,16.90
2022-10-11T18:19:29.836Z,14.68
2022-10-11T18:22:02.045Z,14.10
2022-10-11T18:24:35.810Z,12.65
2022-10-11T18:27:05.512Z,12.60
2022-10-11T18:29:36.410Z,12.55
2022-10-11T18:32:06.254Z,11.60
2022-10-11T18:34:35.811Z,12.25
2022-10-11T18:37:05.606Z,14.13
2022-10-11T18:42:07.545Z,12.70
2022-10-11T18:44:38.257Z,14.45
2022-10-11T18:47:07.854Z,14.20
2022-10-11T18:49:37.344Z,15.77
2022-10-11T18:52:07.858Z,16.17
2022-10-11T18:54:37.524Z,16.52
2022-10-11T18:57:06.885Z,15.15
2022-10-11T18:59:37.780Z,14.40
2022-10-11T19:02:07.605Z,13.43
2022-10-11T19:04:37.747Z,14.88
2022-10-11T19:07:07.286Z,13.55
2022-10-11T19:09:36.673Z,14.55
2022-10-11T19:12:06.548Z,16.17
2022-10-11T19:14:37.480Z,16.13
2022-10-11T19:17:07.244Z,17.20
2022-10-11T19:19:37.231Z,18.20
2022-10-11T19:22:06.975Z,16.02
2022-10-11T19:24:36.879Z,14.65
2022-10-11T19:27:06.422Z,14.68
2022-10-11T19:29:37.802Z,15.38
2022-10-11T19:32:07.249Z,14.13
2022-10-11T19:34:36.731Z,14.43
2022-10-11T19:37:06.116Z,14.52
2022-10-11T19:39:35.591Z,14.23
2022-10-11T19:42:05.429Z,15.77
2022-10-11T19:44:38.686Z,15.10
2022-10-11T19:47:10.820Z,16.20
2022-10-11T19:49:40.259Z,15.55
2022-10-11T19:52:10.368Z,14.75
2022-10-11T19:54:39.826Z,16.70
2022-10-11T19:57:09.471Z,16.65
2022-10-11T19:59:38.904Z,17.63
2022-10-11T20:02:10.915Z,16.33
2022-10-11T20:07:22.676Z,17.02
2022-10-11T20:09:53.277Z,16.45
2022-10-11T20:12:23.104Z,16.60
2022-10-11T20:14:52.504Z,17.15
2022-10-11T20:17:43.248Z,15.82
2022-10-11T20:20:12.866Z,16.08
2022-10-11T20:22:42.348Z,15.63
2022-10-11T20:25:12.074Z,15.35
2022-10-11T20:27:43.400Z,16.38
2022-10-11T20:30:14.751Z,18.55
2022-10-11T20:32:45.628Z,17.40
2022-10-11T20:35:15.170Z,18.58
2022-10-11T20:37:46.181Z,18.75
2022-10-11T20:40:16.329Z,18.58
2022-10-11T20:42:45.795Z,18.30
2022-10-11T20:45:22.441Z,16.85
2022-10-11T20:47:54.597Z,15.88
2022-10-11T20:50:24.171Z,16.25
2022-10-11T20:52:54.929Z,17.30
2022-10-11T20:55:24.294Z,17.17
2022-10-11T20:57:53.792Z,15.77
2022-10-11T21:00:24.038Z,17.75
2022-10-11T21:02:54.828Z,17.52
2022-10-11T21:05:24.216Z,15.77
2022-10-11T21:07:53.565Z,16.88
2022-10-11T21:10:22.957Z,15.35
2022-10-11T21:12:52.393Z,17.77
2022-10-11T21:15:21.812Z,16.23
2022-10-11T21:17:52.184Z,16.33
2022-10-11T21:20:23.256Z,18.50
2022-10-11T21:22:52.713Z,15.40
2022-10-11T21:25:22.402Z,16.55
2022-10-11T21:27:51.800Z,19.60
2022-10-11T21:30:21.247Z,19.95
2022-10-11T21:32:50.651Z,18.92
2022-10-11T21:35:20.040Z,17.42
2022-10-11T21:37:50.909Z,17.15
2022-10-11T21:40:20.272Z,17.35
2022-10-11T21:42:49.808Z,19.40
2022-10-11T21:45:19.424Z,17.95
2022-10-11T21:47:48.786Z,16.15
2022-10-11T21:50:18.591Z,17.20
2022-10-11T21:52:48.174Z,18.25
2022-10-11T21:55:19.031Z,17.35
2022-10-11T21:57:48.392Z,16.83
2022-10-11T22:00:19.461Z,18.25
2022-10-11T22:02:48.943Z,18.92
2022-10-11T22:05:18.667Z,17.55
2022-10-11T22:07:48.187Z,18.00
2022-10-11T22:10:19.109Z,17.60
2022-10-11T22:12:50.138Z,16.17
2022-10-11T22:15:19.537Z,16.13
2022-10-11T22:17:48.906Z,16.90
2022-10-11T22:20:18.576Z,17.98
2022-10-11T22:22:48.031Z,19.58
2022-10-11T22:25:19.077Z,18.05
2022-10-11T22:27:50.139Z,19.63
2022-10-11T22:30:19.794Z,18.23
2022-10-11T22:32:51.699Z,19.02
2022-10-11T22:35:21.346Z,16.67
2022-10-11T22:37:51.237Z,16.63
2022-10-11T22:40:22.224Z,18.75
2022-10-11T22:42:51.576Z,18.15
2022-10-11T22:45:21.096Z,20.77
2022-10-11T22:47:50.455Z,18.17
2022-10-11T22:50:19.832Z,17.50
2022-10-11T22:52:49.307Z,16.98
2022-10-11T22:55:20.261Z,17.75
2022-10-11T22:57:51.202Z,18.52
2022-10-11T23:00:21.277Z,17.33
2022-10-11T23:02:50.677Z,18.67
2022-10-11T23:05:20.130Z,18.40
2022-10-11T23:07:49.689Z,20.33
2022-10-11T23:10:19.541Z,20.17
2022-10-11T23:12:50.333Z,19.27
2022-10-11T23:15:19.926Z,19.30
2022-10-11T23:17:49.331Z,18.95
2022-10-11T23:20:18.996Z,20.83
2022-10-11T23:22:48.344Z,20.58
2022-10-11T23:25:18.017Z,20.70
2022-10-11T23:27:47.423Z,19.73
2022-10-11T23:30:18.585Z,18.27
2022-10-11T23:32:48.002Z,19.63
2022-10-11T23:35:17.933Z,18.30
2022-10-11T23:37:47.293Z,18.67
2022-10-11T23:40:16.949Z,19.27
2022-10-11T23:42:46.432Z,19.52
2022-10-11T23:45:20.240Z,20.13
2022-10-11T23:47:49.608Z,19.00
2022-10-11T23:50:19.299Z,19.65
2022-10-11T23:52:48.669Z,20.27
2022-10-11T23:55:18.875Z,22.45
2022-10-11T23:57:48.371Z,20.42
